sensor_id;sensor_type;location;lat;lon;timestamp;pressure;altitude;pressure_sealevel;temperature;humidity
72370;BME280;60343;-32.030;115.880;2023-11-18T00:02:31;102063.84;;;27.04;33.03
72370;BME280;60343;-32.030;115.880;2023-11-18T00:05:12;102068.75;;;27.19;33.67
72370;BME280;60343;-32.030;115.880;2023-11-18T00:07:48;102064.09;;;27.03;34.03
72370;BME280;60343;-32.030;115.880;2023-11-18T00:10:23;102056.53;;;26.93;33.91
72370;BME280;60343;-32.030;115.880;2023-11-18T00:12:59;102064.06;;;27.19;33.92
72370;BME280;60343;-32.030;115.880;2023-11-18T00:15:34;102061.81;;;27.16;34.03
72370;BME280;60343;-32.030;115.880;2023-11-18T00:18:10;102063.63;;;27.27;33.32
72370;BME280;60343;-32.030;115.880;2023-11-18T00:20:51;102069.72;;;27.68;32.02
72370;BME280;60343;-32.030;115.880;2023-11-18T00:23:26;102066.28;;;27.56;32.11
72370;BME280;60343;-32.030;115.880;2023-11-18T00:26:01;102057.94;;;27.94;32.34
72370;BME280;60343;-32.030;115.880;2023-11-18T00:28:38;102056.06;;;28.48;31.41
72370;BME280;60343;-32.030;115.880;2023-11-18T00:31:13;102062.09;;;28.19;31.62
72370;BME280;60343;-32.030;115.880;2023-11-18T00:33:48;102059.75;;;28.59;31.16
72370;BME280;60343;-32.030;115.880;2023-11-18T00:36:29;102058.47;;;28.40;30.76
72370;BME280;60343;-32.030;115.880;2023-11-18T00:39:04;102051.34;;;28.44;31.43
72370;BME280;60343;-32.030;115.880;2023-11-18T00:41:41;102049.25;;;28.88;32.22
72370;BME280;60343;-32.030;115.880;2023-11-18T00:44:16;102049.78;;;29.22;30.40
72370;BME280;60343;-32.030;115.880;2023-11-18T00:46:52;102044.75;;;29.14;29.39
72370;BME280;60343;-32.030;115.880;2023-11-18T00:49:28;102040.22;;;29.34;30.00
72370;BME280;60343;-32.030;115.880;2023-11-18T00:52:09;102029.34;;;29.70;29.02
72370;BME280;60343;-32.030;115.880;2023-11-18T00:54:44;102033.53;;;29.77;29.83
72370;BME280;60343;-32.030;115.880;2023-11-18T00:57:20;102019.81;;;29.98;28.31
72370;BME280;60343;-32.030;115.880;2023-11-18T00:59:57;102019.00;;;30.02;29.09
72370;BME280;60343;-32.030;115.880;2023-11-18T01:02:32;102018.16;;;30.02;28.32
72370;BME280;60343;-32.030;115.880;2023-11-18T01:05:07;102019.84;;;30.28;28.61
72370;BME280;60343;-32.030;115.880;2023-11-18T01:10:55;102020.16;;;30.82;27.93
72370;BME280;60343;-32.030;115.880;2023-11-18T01:13:32;102014.91;;;30.71;27.06
72370;BME280;60343;-32.030;115.880;2023-11-18T01:16:07;102013.81;;;30.66;27.74
72370;BME280;60343;-32.030;115.880;2023-11-18T01:18:43;102006.03;;;30.43;27.88
72370;BME280;60343;-32.030;115.880;2023-11-18T01:21:19;102000.50;;;30.23;29.38
72370;BME280;60343;-32.030;115.880;2023-11-18T01:23:55;102004.94;;;30.34;28.44
72370;BME280;60343;-32.030;115.880;2023-11-18T01:26:36;101996.66;;;30.75;28.30
72370;BME280;60343;-32.030;115.880;2023-11-18T01:29:13;101989.72;;;30.92;28.46
72370;BME280;60343;-32.030;115.880;2023-11-18T01:31:50;101993.00;;;31.15;28.20
72370;BME280;60343;-32.030;115.880;2023-11-18T01:34:26;101993.81;;;31.20;26.94
72370;BME280;60343;-32.030;115.880;2023-11-18T01:37:02;101989.97;;;31.16;27.67
72370;BME280;60343;-32.030;115.880;2023-11-18T01:39:37;101991.13;;;30.69;27.79
72370;BME280;60343;-32.030;115.880;2023-11-18T01:42:18;101983.94;;;30.58;28.65
72370;BME280;60343;-32.030;115.880;2023-11-18T01:44:53;101987.81;;;30.27;29.18
72370;BME280;60343;-32.030;115.880;2023-11-18T01:47:32;101980.34;;;30.38;29.15
72370;BME280;60343;-32.030;115.880;2023-11-18T01:50:10;101986.44;;;30.70;27.96
72370;BME280;60343;-32.030;115.880;2023-11-18T01:52:47;101989.41;;;31.19;26.99
72370;BME280;60343;-32.030;115.880;2023-11-18T01:55:23;101975.53;;;31.24;26.91
72370;BME280;60343;-32.030;115.880;2023-11-18T01:58:04;101973.88;;;31.33;28.48
72370;BME280;60343;-32.030;115.880;2023-11-18T02:00:42;101972.13;;;31.58;26.96
72370;BME280;60343;-32.030;115.880;2023-11-18T02:03:19;101975.13;;;31.61;25.90
72370;BME280;60343;-32.030;115.880;2023-11-18T02:05:54;101973.72;;;31.69;26.09
72370;BME280;60343;-32.030;115.880;2023-11-18T02:08:30;101976.34;;;31.94;26.29
72370;BME280;60343;-32.030;115.880;2023-11-18T02:11:24;101972.09;;;32.12;25.30
72370;BME280;60343;-32.030;115.880;2023-11-18T02:14:10;101973.44;;;32.09;25.97
72370;BME280;60343;-32.030;115.880;2023-11-18T02:16:49;101966.25;;;32.08;26.22
72370;BME280;60343;-32.030;115.880;2023-11-18T02:19:28;101969.88;;;32.09;25.07
72370;BME280;60343;-32.030;115.880;2023-11-18T02:22:06;101967.31;;;32.17;23.48
72370;BME280;60343;-32.030;115.880;2023-11-18T02:24:42;101956.28;;;32.07;24.45
72370;BME280;60343;-32.030;115.880;2023-11-18T02:27:23;101958.19;;;32.17;25.12
72370;BME280;60343;-32.030;115.880;2023-11-18T02:29:58;101952.22;;;32.33;24.02
72370;BME280;60343;-32.030;115.880;2023-11-18T02:32:39;101948.75;;;32.18;23.92
72370;BME280;60343;-32.030;115.880;2023-11-18T02:35:24;101946.34;;;32.01;24.36
72370;BME280;60343;-32.030;115.880;2023-11-18T02:38:03;101947.22;;;31.97;24.73
72370;BME280;60343;-32.030;115.880;2023-11-18T02:40:41;101935.50;;;32.05;24.61
72370;BME280;60343;-32.030;115.880;2023-11-18T02:43:25;101943.63;;;31.96;24.97
72370;BME280;60343;-32.030;115.880;2023-11-18T02:46:02;101935.50;;;32.05;25.50
72370;BME280;60343;-32.030;115.880;2023-11-18T02:48:40;101926.78;;;32.26;24.75
72370;BME280;60343;-32.030;115.880;2023-11-18T02:51:16;101922.22;;;32.41;25.48
72370;BME280;60343;-32.030;115.880;2023-11-18T02:53:52;101915.84;;;32.40;24.98
72370;BME280;60343;-32.030;115.880;2023-11-18T02:56:27;101912.06;;;32.31;25.70
72370;BME280;60343;-32.030;115.880;2023-11-18T02:59:08;101912.34;;;32.29;23.23
72370;BME280;60343;-32.030;115.880;2023-11-18T03:01:43;101910.06;;;32.36;23.18
72370;BME280;60343;-32.030;115.880;2023-11-18T03:04:18;101910.88;;;32.37;21.81
72370;BME280;60343;-32.030;115.880;2023-11-18T03:06:53;101901.28;;;32.24;22.47
72370;BME280;60343;-32.030;115.880;2023-11-18T03:09:28;101890.44;;;32.57;20.88
72370;BME280;60343;-32.030;115.880;2023-11-18T03:12:07;101880.88;;;32.73;21.39
72370;BME280;60343;-32.030;115.880;2023-11-18T03:14:50;101883.50;;;33.07;19.93
72370;BME280;60343;-32.030;115.880;2023-11-18T03:17:25;101880.34;;;33.18;20.58
72370;BME280;60343;-32.030;115.880;2023-11-18T03:20:01;101873.13;;;33.36;20.22
72370;BME280;60343;-32.030;115.880;2023-11-18T03:22:36;101870.06;;;33.38;20.75
72370;BME280;60343;-32.030;115.880;2023-11-18T03:25:12;101869.53;;;33.36;20.63
72370;BME280;60343;-32.030;115.880;2023-11-18T03:27:47;101864.44;;;33.43;21.48
72370;BME280;60343;-32.030;115.880;2023-11-18T03:30:28;101874.88;;;33.51;20.66
72370;BME280;60343;-32.030;115.880;2023-11-18T03:33:05;101863.91;;;33.41;20.66
72370;BME280;60343;-32.030;115.880;2023-11-18T03:35:40;101862.28;;;33.40;20.31
72370;BME280;60343;-32.030;115.880;2023-11-18T03:38:16;101860.91;;;33.56;20.02
72370;BME280;60343;-32.030;115.880;2023-11-18T03:40:51;101854.97;;;33.62;21.18
72370;BME280;60343;-32.030;115.880;2023-11-18T03:43:28;101844.47;;;33.78;22.09
72370;BME280;60343;-32.030;115.880;2023-11-18T03:46:09;101837.03;;;34.06;21.80
72370;BME280;60343;-32.030;115.880;2023-11-18T03:48:46;101838.69;;;34.07;20.70
72370;BME280;60343;-32.030;115.880;2023-11-18T03:51:21;101830.94;;;34.23;20.38
72370;BME280;60343;-32.030;115.880;2023-11-18T03:53:56;101835.47;;;34.46;19.48
72370;BME280;60343;-32.030;115.880;2023-11-18T03:56:32;101825.91;;;34.38;18.50
72370;BME280;60343;-32.030;115.880;2023-11-18T03:59:07;101817.03;;;34.36;19.72
72370;BME280;60343;-32.030;115.880;2023-11-18T04:01:48;101812.09;;;34.33;18.85
72370;BME280;60343;-32.030;115.880;2023-11-18T04:04:23;101821.88;;;34.31;19.22
72370;BME280;60343;-32.030;115.880;2023-11-18T04:06:58;101818.69;;;34.51;18.70
72370;BME280;60343;-32.030;115.880;2023-11-18T04:09:34;101806.63;;;34.56;19.09
72370;BME280;60343;-32.030;115.880;2023-11-18T04:12:09;101804.63;;;34.75;19.34
72370;BME280;60343;-32.030;115.880;2023-11-18T04:14:46;101814.59;;;34.90;19.17
72370;BME280;60343;-32.030;115.880;2023-11-18T04:17:27;101807.44;;;35.11;17.48
72370;BME280;60343;-32.030;115.880;2023-11-18T04:20:02;101808.69;;;35.18;17.61
72370;BME280;60343;-32.030;115.880;2023-11-18T04:22:40;101798.31;;;35.33;17.40
72370;BME280;60343;-32.030;115.880;2023-11-18T04:25:15;101806.34;;;35.56;17.71
72370;BME280;60343;-32.030;115.880;2023-11-18T04:27:51;101802.22;;;35.67;18.20
72370;BME280;60343;-32.030;115.880;2023-11-18T04:30:26;101792.75;;;35.77;19.60
72370;BME280;60343;-32.030;115.880;2023-11-18T04:33:07;101795.41;;;35.82;17.44
72370;BME280;60343;-32.030;115.880;2023-11-18T04:35:42;101786.38;;;35.77;17.79
72370;BME280;60343;-32.030;115.880;2023-11-18T04:38:17;101779.31;;;35.70;17.63
72370;BME280;60343;-32.030;115.880;2023-11-18T04:40:53;101784.84;;;35.48;18.36
72370;BME280;60343;-32.030;115.880;2023-11-18T04:43:28;101783.03;;;35.66;18.26
72370;BME280;60343;-32.030;115.880;2023-11-18T04:46:03;101773.22;;;35.68;17.36
72370;BME280;60343;-32.030;115.880;2023-11-18T04:48:44;101774.91;;;35.56;18.32
72370;BME280;60343;-32.030;115.880;2023-11-18T04:51:21;101769.38;;;35.42;18.59
72370;BME280;60343;-32.030;115.880;2023-11-18T04:53:56;101774.41;;;35.54;18.34
72370;BME280;60343;-32.030;115.880;2023-11-18T04:56:35;101766.72;;;35.37;18.97
72370;BME280;60343;-32.030;115.880;2023-11-18T04:59:12;101759.69;;;35.17;18.67
72370;BME280;60343;-32.030;115.880;2023-11-18T05:01:48;101756.16;;;35.25;18.32
72370;BME280;60343;-32.030;115.880;2023-11-18T05:04:29;101746.03;;;35.74;19.54
72370;BME280;60343;-32.030;115.880;2023-11-18T05:07:05;101741.22;;;35.97;18.37
72370;BME280;60343;-32.030;115.880;2023-11-18T05:09:41;101739.06;;;36.16;18.91
72370;BME280;60343;-32.030;115.880;2023-11-18T05:12:19;101730.88;;;36.28;19.70
72370;BME280;60343;-32.030;115.880;2023-11-18T05:14:54;101728.31;;;35.70;18.83
72370;BME280;60343;-32.030;115.880;2023-11-18T05:17:30;101736.97;;;35.91;19.95
72370;BME280;60343;-32.030;115.880;2023-11-18T05:20:13;101717.03;;;36.06;18.07
72370;BME280;60343;-32.030;115.880;2023-11-18T05:22:48;101721.81;;;36.14;17.04
72370;BME280;60343;-32.030;115.880;2023-11-18T05:25:23;101717.75;;;36.20;17.51
72370;BME280;60343;-32.030;115.880;2023-11-18T05:28:01;101710.69;;;36.23;19.23
72370;BME280;60343;-32.030;115.880;2023-11-18T05:30:37;101704.34;;;36.31;18.11
72370;BME280;60343;-32.030;115.880;2023-11-18T05:33:13;101698.53;;;36.84;18.47
72370;BME280;60343;-32.030;115.880;2023-11-18T05:35:55;101697.88;;;37.04;17.30
72370;BME280;60343;-32.030;115.880;2023-11-18T05:38:33;101704.91;;;36.93;16.05
72370;BME280;60343;-32.030;115.880;2023-11-18T05:41:10;101695.25;;;36.99;16.38
72370;BME280;60343;-32.030;115.880;2023-11-18T05:43:51;101688.88;;;37.16;15.65
72370;BME280;60343;-32.030;115.880;2023-11-18T05:46:27;101689.97;;;37.23;18.44
72370;BME280;60343;-32.030;115.880;2023-11-18T05:49:04;101688.19;;;37.19;21.35
72370;BME280;60343;-32.030;115.880;2023-11-18T05:51:45;101671.94;;;37.12;21.17
72370;BME280;60343;-32.030;115.880;2023-11-18T05:54:20;101675.38;;;37.01;20.95
72370;BME280;60343;-32.030;115.880;2023-11-18T05:56:56;101685.06;;;36.94;20.21
72370;BME280;60343;-32.030;115.880;2023-11-18T05:59:32;101681.78;;;37.10;20.48
72370;BME280;60343;-32.030;115.880;2023-11-18T06:02:07;101677.19;;;37.14;21.44
72370;BME280;60343;-32.030;115.880;2023-11-18T06:04:46;101678.63;;;37.03;21.67
72370;BME280;60343;-32.030;115.880;2023-11-18T06:07:28;101666.81;;;37.06;20.03
72370;BME280;60343;-32.030;115.880;2023-11-18T06:10:03;101668.00;;;36.70;20.73
72370;BME280;60343;-32.030;115.880;2023-11-18T06:12:40;101655.28;;;36.38;20.65
72370;BME280;60343;-32.030;115.880;2023-11-18T06:15:15;101653.75;;;36.15;20.65
72370;BME280;60343;-32.030;115.880;2023-11-18T06:17:50;101660.66;;;35.87;21.96
72370;BME280;60343;-32.030;115.880;2023-11-18T06:20:25;101654.53;;;35.67;21.01
72370;BME280;60343;-32.030;115.880;2023-11-18T06:23:06;101656.81;;;35.65;21.48
72370;BME280;60343;-32.030;115.880;2023-11-18T06:25:43;101657.06;;;35.55;21.36
72370;BME280;60343;-32.030;115.880;2023-11-18T06:28:19;101643.91;;;35.47;21.59
72370;BME280;60343;-32.030;115.880;2023-11-18T06:30:54;101649.16;;;35.49;21.41
72370;BME280;60343;-32.030;115.880;2023-11-18T06:33:29;101661.66;;;35.29;21.50
72370;BME280;60343;-32.030;115.880;2023-11-18T06:36:05;101643.81;;;35.30;21.54
72370;BME280;60343;-32.030;115.880;2023-11-18T06:38:49;101653.84;;;35.31;21.74
72370;BME280;60343;-32.030;115.880;2023-11-18T06:41:24;101660.97;;;35.46;22.29
72370;BME280;60343;-32.030;115.880;2023-11-18T06:44:01;101655.88;;;35.03;21.70
72370;BME280;60343;-32.030;115.880;2023-11-18T06:46:40;101657.78;;;34.58;23.35
72370;BME280;60343;-32.030;115.880;2023-11-18T06:49:16;101650.78;;;34.47;23.30
72370;BME280;60343;-32.030;115.880;2023-11-18T06:51:53;101656.28;;;33.97;23.57
72370;BME280;60343;-32.030;115.880;2023-11-18T06:54:36;101650.94;;;33.41;23.23
72370;BME280;60343;-32.030;115.880;2023-11-18T06:57:11;101657.47;;;32.99;23.74
72370;BME280;60343;-32.030;115.880;2023-11-18T06:59:47;101657.38;;;32.86;24.38
72370;BME280;60343;-32.030;115.880;2023-11-18T07:02:22;101648.53;;;32.65;24.38
72370;BME280;60343;-32.030;115.880;2023-11-18T07:04:57;101649.63;;;32.69;24.79
72370;BME280;60343;-32.030;115.880;2023-11-18T07:07:33;101647.81;;;32.35;24.26
72370;BME280;60343;-32.030;115.880;2023-11-18T07:10:16;101647.19;;;31.96;24.97
72370;BME280;60343;-32.030;115.880;2023-11-18T07:12:51;101646.59;;;31.46;26.04
72370;BME280;60343;-32.030;115.880;2023-11-18T07:15:27;101648.91;;;31.34;25.89
72370;BME280;60343;-32.030;115.880;2023-11-18T07:18:02;101653.63;;;31.34;26.11
72370;BME280;60343;-32.030;115.880;2023-11-18T07:20:38;101642.84;;;30.98;26.69
72370;BME280;60343;-32.030;115.880;2023-11-18T07:23:13;101648.56;;;30.73;26.65
72370;BME280;60343;-32.030;115.880;2023-11-18T07:25:54;101654.00;;;30.29;27.08
72370;BME280;60343;-32.030;115.880;2023-11-18T07:28:29;101652.97;;;30.20;27.29
72370;BME280;60343;-32.030;115.880;2023-11-18T07:31:05;101664.78;;;30.36;27.77
72370;BME280;60343;-32.030;115.880;2023-11-18T07:33:40;101651.19;;;30.39;27.49
72370;BME280;60343;-32.030;115.880;2023-11-18T07:36:17;101653.94;;;30.49;27.41
72370;BME280;60343;-32.030;115.880;2023-11-18T07:38:54;101644.00;;;30.43;26.90
72370;BME280;60343;-32.030;115.880;2023-11-18T07:41:38;101648.00;;;30.22;27.11
72370;BME280;60343;-32.030;115.880;2023-11-18T07:44:13;101644.78;;;29.90;27.83
72370;BME280;60343;-32.030;115.880;2023-11-18T07:46:49;101652.28;;;29.64;27.74
72370;BME280;60343;-32.030;115.880;2023-11-18T07:49:25;101639.88;;;29.61;28.00
72370;BME280;60343;-32.030;115.880;2023-11-18T07:52:00;101647.31;;;29.66;28.51
72370;BME280;60343;-32.030;115.880;2023-11-18T07:54:36;101641.78;;;29.71;28.06
72370;BME280;60343;-32.030;115.880;2023-11-18T07:57:18;101645.66;;;29.60;27.70
72370;BME280;60343;-32.030;115.880;2023-11-18T07:59:55;101657.56;;;29.45;28.08
72370;BME280;60343;-32.030;115.880;2023-11-18T08:02:37;101651.75;;;29.47;28.22
72370;BME280;60343;-32.030;115.880;2023-11-18T08:05:13;101646.50;;;29.40;28.17
72370;BME280;60343;-32.030;115.880;2023-11-18T08:07:51;101649.84;;;29.47;28.27
72370;BME280;60343;-32.030;115.880;2023-11-18T08:10:27;101653.13;;;29.44;28.56
72370;BME280;60343;-32.030;115.880;2023-11-18T08:13:11;101644.84;;;29.49;28.34
72370;BME280;60343;-32.030;115.880;2023-11-18T08:15:46;101650.94;;;29.36;28.70
72370;BME280;60343;-32.030;115.880;2023-11-18T08:18:24;101658.09;;;29.22;28.73
72370;BME280;60343;-32.030;115.880;2023-11-18T08:20:59;101658.34;;;29.20;29.16
72370;BME280;60343;-32.030;115.880;2023-11-18T08:23:34;101659.22;;;29.31;28.65
72370;BME280;60343;-32.030;115.880;2023-11-18T08:26:12;101656.97;;;29.48;28.36
72370;BME280;60343;-32.030;115.880;2023-11-18T08:28:53;101659.72;;;29.58;28.22
72370;BME280;60343;-32.030;115.880;2023-11-18T08:31:29;101663.31;;;29.59;27.96
72370;BME280;60343;-32.030;115.880;2023-11-18T08:34:04;101654.78;;;29.55;27.55
72370;BME280;60343;-32.030;115.880;2023-11-18T08:36:39;101659.22;;;29.41;28.30
72370;BME280;60343;-32.030;115.880;2023-11-18T08:39:14;101661.38;;;29.29;28.85
72370;BME280;60343;-32.030;115.880;2023-11-18T08:41:53;101658.63;;;29.14;29.03
72370;BME280;60343;-32.030;115.880;2023-11-18T08:44:35;101656.41;;;28.95;29.15
72370;BME280;60343;-32.030;115.880;2023-11-18T08:47:11;101656.13;;;28.87;30.05
72370;BME280;60343;-32.030;115.880;2023-11-18T08:49:46;101656.91;;;28.72;29.60
72370;BME280;60343;-32.030;115.880;2023-11-18T08:52:23;101656.34;;;28.65;29.87
72370;BME280;60343;-32.030;115.880;2023-11-18T08:54:58;101665.69;;;28.64;30.44
72370;BME280;60343;-32.030;115.880;2023-11-18T08:57:41;101657.97;;;28.61;30.28
72370;BME280;60343;-32.030;115.880;2023-11-18T09:00:32;101662.34;;;28.42;30.53
72370;BME280;60343;-32.030;115.880;2023-11-18T09:03:22;101663.91;;;28.28;30.32
72370;BME280;60343;-32.030;115.880;2023-11-18T09:06:03;101665.69;;;28.02;31.14
72370;BME280;60343;-32.030;115.880;2023-11-18T09:08:46;101666.50;;;27.97;31.44
72370;BME280;60343;-32.030;115.880;2023-11-18T09:11:23;101674.72;;;27.92;31.27
72370;BME280;60343;-32.030;115.880;2023-11-18T09:14:00;101675.28;;;27.89;30.99
72370;BME280;60343;-32.030;115.880;2023-11-18T09:16:41;101669.47;;;27.86;31.31
72370;BME280;60343;-32.030;115.880;2023-11-18T09:19:16;101666.94;;;27.79;31.97
72370;BME280;60343;-32.030;115.880;2023-11-18T09:21:52;101671.63;;;27.79;32.66
72370;BME280;60343;-32.030;115.880;2023-11-18T09:24:27;101672.72;;;27.78;32.75
72370;BME280;60343;-32.030;115.880;2023-11-18T09:27:04;101681.25;;;27.76;33.28
72370;BME280;60343;-32.030;115.880;2023-11-18T09:29:41;101675.16;;;27.69;32.79
72370;BME280;60343;-32.030;115.880;2023-11-18T09:32:24;101670.19;;;27.66;33.53
72370;BME280;60343;-32.030;115.880;2023-11-18T09:35:02;101683.38;;;27.64;33.04
72370;BME280;60343;-32.030;115.880;2023-11-18T09:37:40;101687.75;;;27.60;33.61
72370;BME280;60343;-32.030;115.880;2023-11-18T09:40:15;101684.75;;;27.66;33.29
72370;BME280;60343;-32.030;115.880;2023-11-18T09:42:55;101695.41;;;27.58;32.60
72370;BME280;60343;-32.030;115.880;2023-11-18T09:45:37;101688.22;;;27.52;32.67
72370;BME280;60343;-32.030;115.880;2023-11-18T09:48:19;101686.50;;;27.46;32.64
72370;BME280;60343;-32.030;115.880;2023-11-18T09:50:55;101693.59;;;27.42;32.97
72370;BME280;60343;-32.030;115.880;2023-11-18T09:53:33;101687.47;;;27.29;31.59
72370;BME280;60343;-32.030;115.880;2023-11-18T09:56:16;101686.84;;;27.22;31.39
72370;BME280;60343;-32.030;115.880;2023-11-18T09:59:10;101689.50;;;27.12;31.12
72370;BME280;60343;-32.030;115.880;2023-11-18T10:01:53;101696.81;;;27.02;31.56
72370;BME280;60343;-32.030;115.880;2023-11-18T10:04:35;101694.56;;;26.94;31.86
72370;BME280;60343;-32.030;115.880;2023-11-18T10:07:11;101695.81;;;26.86;32.16
72370;BME280;60343;-32.030;115.880;2023-11-18T10:09:47;101697.34;;;26.77;32.33
72370;BME280;60343;-32.030;115.880;2023-11-18T10:12:25;101702.56;;;26.52;32.97
72370;BME280;60343;-32.030;115.880;2023-11-18T10:15:05;101700.16;;;26.33;34.10
72370;BME280;60343;-32.030;115.880;2023-11-18T10:17:46;101712.28;;;26.21;34.39
72370;BME280;60343;-32.030;115.880;2023-11-18T10:20:52;101717.09;;;26.09;35.09
72370;BME280;60343;-32.030;115.880;2023-11-18T10:23:28;101714.44;;;25.97;35.50
72370;BME280;60343;-32.030;115.880;2023-11-18T10:26:05;101717.88;;;25.87;35.11
72370;BME280;60343;-32.030;115.880;2023-11-18T10:28:40;101734.50;;;25.81;35.54
72370;BME280;60343;-32.030;115.880;2023-11-18T10:31:20;101734.84;;;25.68;36.16
72370;BME280;60343;-32.030;115.880;2023-11-18T10:33:56;101738.03;;;25.59;36.46
72370;BME280;60343;-32.030;115.880;2023-11-18T10:36:37;101741.88;;;25.47;36.62
72370;BME280;60343;-32.030;115.880;2023-11-18T10:39:14;101745.44;;;25.31;37.41
72370;BME280;60343;-32.030;115.880;2023-11-18T10:41:50;101742.16;;;25.17;37.64
72370;BME280;60343;-32.030;115.880;2023-11-18T10:44:25;101744.72;;;25.07;37.74
72370;BME280;60343;-32.030;115.880;2023-11-18T10:47:00;101751.59;;;24.93;38.06
72370;BME280;60343;-32.030;115.880;2023-11-18T10:49:39;101766.22;;;24.87;38.39
72370;BME280;60343;-32.030;115.880;2023-11-18T10:52:20;101758.53;;;24.72;38.69
72370;BME280;60343;-32.030;115.880;2023-11-18T10:54:59;101764.84;;;24.72;38.94
72370;BME280;60343;-32.030;115.880;2023-11-18T10:57:39;101770.09;;;24.62;39.12
72370;BME280;60343;-32.030;115.880;2023-11-18T11:00:15;101768.31;;;24.56;39.66
72370;BME280;60343;-32.030;115.880;2023-11-18T11:02:59;101773.47;;;24.53;40.11
72370;BME280;60343;-32.030;115.880;2023-11-18T11:05:35;101774.41;;;24.47;40.62
72370;BME280;60343;-32.030;115.880;2023-11-18T11:08:17;101774.06;;;24.43;41.16
72370;BME280;60343;-32.030;115.880;2023-11-18T11:10:54;101773.59;;;24.34;41.51
72370;BME280;60343;-32.030;115.880;2023-11-18T11:13:35;101772.41;;;24.30;41.93
72370;BME280;60343;-32.030;115.880;2023-11-18T11:16:13;101776.81;;;24.31;42.43
72370;BME280;60343;-32.030;115.880;2023-11-18T11:18:56;101781.47;;;24.31;42.70
72370;BME280;60343;-32.030;115.880;2023-11-18T11:21:40;101772.41;;;24.30;42.99
72370;BME280;60343;-32.030;115.880;2023-11-18T11:24:32;101778.03;;;24.24;43.20
72370;BME280;60343;-32.030;115.880;2023-11-18T11:27:23;101782.56;;;24.18;43.47
72370;BME280;60343;-32.030;115.880;2023-11-18T11:30:14;101780.97;;;24.11;43.75
72370;BME280;60343;-32.030;115.880;2023-11-18T11:32:56;101782.63;;;24.00;44.45
72370;BME280;60343;-32.030;115.880;2023-11-18T11:35:40;101791.19;;;23.92;44.65
72370;BME280;60343;-32.030;115.880;2023-11-18T11:38:18;101785.13;;;23.90;45.01
72370;BME280;60343;-32.030;115.880;2023-11-18T11:41:02;101781.53;;;23.89;44.70
72370;BME280;60343;-32.030;115.880;2023-11-18T11:43:48;101795.47;;;23.88;44.80
72370;BME280;60343;-32.030;115.880;2023-11-18T11:46:27;101791.28;;;23.85;44.88
72370;BME280;60343;-32.030;115.880;2023-11-18T11:49:06;101783.56;;;23.82;45.07
72370;BME280;60343;-32.030;115.880;2023-11-18T11:51:49;101790.34;;;23.80;45.13
72370;BME280;60343;-32.030;115.880;2023-11-18T11:54:29;101781.16;;;23.74;44.95
72370;BME280;60343;-32.030;115.880;2023-11-18T11:57:12;101784.75;;;23.75;45.09
72370;BME280;60343;-32.030;115.880;2023-11-18T11:59:57;101786.38;;;23.64;45.31
72370;BME280;60343;-32.030;115.880;2023-11-18T12:02:49;101790.69;;;23.72;44.96
72370;BME280;60343;-32.030;115.880;2023-11-18T12:05:26;101794.59;;;23.64;45.29
72370;BME280;60343;-32.030;115.880;2023-11-18T12:08:01;101796.38;;;23.59;45.25
72370;BME280;60343;-32.030;115.880;2023-11-18T12:10:40;101790.53;;;23.55;45.31
72370;BME280;60343;-32.030;115.880;2023-11-18T12:13:31;101794.09;;;23.56;45.05
72370;BME280;60343;-32.030;115.880;2023-11-18T12:16:08;101801.09;;;23.51;45.20
72370;BME280;60343;-32.030;115.880;2023-11-18T12:22:00;101799.13;;;23.40;45.02
72370;BME280;60343;-32.030;115.880;2023-11-18T12:24:40;101812.44;;;23.37;45.07
72370;BME280;60343;-32.030;115.880;2023-11-18T12:27:43;101805.44;;;23.41;44.78
72370;BME280;60343;-32.030;115.880;2023-11-18T12:30:49;101806.97;;;23.37;45.01
72370;BME280;60343;-32.030;115.880;2023-11-18T12:34:01;101802.72;;;23.41;44.95
72370;BME280;60343;-32.030;115.880;2023-11-18T12:40:21;101811.00;;;23.34;44.85
72370;BME280;60343;-32.030;115.880;2023-11-18T12:43:03;101813.59;;;23.29;45.06
72370;BME280;60343;-32.030;115.880;2023-11-18T12:48:50;101818.34;;;23.22;45.28
72370;BME280;60343;-32.030;115.880;2023-11-18T12:51:27;101815.81;;;23.21;45.53
72370;BME280;60343;-32.030;115.880;2023-11-18T12:54:04;101816.38;;;23.11;45.96
72370;BME280;60343;-32.030;115.880;2023-11-18T12:56:40;101818.50;;;23.09;45.85
72370;BME280;60343;-32.030;115.880;2023-11-18T12:59:17;101816.00;;;23.07;45.89
72370;BME280;60343;-32.030;115.880;2023-11-18T13:01:58;101817.63;;;22.97;46.31
72370;BME280;60343;-32.030;115.880;2023-11-18T13:04:33;101811.31;;;22.96;46.48
72370;BME280;60343;-32.030;115.880;2023-11-18T13:07:09;101818.91;;;22.94;46.57
72370;BME280;60343;-32.030;115.880;2023-11-18T13:09:45;101822.56;;;22.88;46.86
72370;BME280;60343;-32.030;115.880;2023-11-18T13:12:22;101829.44;;;22.91;46.73
72370;BME280;60343;-32.030;115.880;2023-11-18T13:14:57;101831.88;;;22.81;46.79
72370;BME280;60343;-32.030;115.880;2023-11-18T13:17:41;101840.16;;;22.74;47.25
72370;BME280;60343;-32.030;115.880;2023-11-18T13:20:34;101828.44;;;22.49;48.05
72370;BME280;60343;-32.030;115.880;2023-11-18T13:23:10;101830.69;;;22.34;48.52
72370;BME280;60343;-32.030;115.880;2023-11-18T13:25:46;101831.50;;;22.34;48.76
72370;BME280;60343;-32.030;115.880;2023-11-18T13:28:24;101834.25;;;22.34;48.60
72370;BME280;60343;-32.030;115.880;2023-11-18T13:30:59;101842.09;;;22.24;49.10